createdAt,value
2022-07-28T00:10:04.217Z,4.78
2022-07-28T00:12:35.627Z,4.10
2022-07-28T00:15:08.166Z,4.38
2022-07-28T00:17:40.010Z,4.63
2022-07-28T00:20:13.715Z,4.35
2022-07-28T00:22:49.256Z,4.70
2022-07-28T00:25:24.243Z,4.85
2022-07-28T00:27:56.408Z,4.72
2022-07-28T00:30:28.116Z,4.13
2022-07-28T00:33:01.367Z,4.90
2022-07-28T00:55:02.261Z,4.53
2022-07-28T01:03:16.129Z,5.10
2022-07-28T01:08:32.362Z,4.80
2022-07-28T01:45:15.447Z,4.63
2022-07-28T01:47:49.766Z,4.90
2022-07-28T01:53:19.978Z,4.85
2022-07-28T01:55:55.834Z,4.47
2022-07-28T01:58:30.926Z,4.35
2022-07-28T02:01:04.544Z,4.95
2022-07-28T02:03:37.475Z,4.80
2022-07-28T02:45:26.454Z,4.90
2022-07-28T02:48:03.508Z,4.32
2022-07-28T02:53:46.609Z,4.22
2022-07-28T04:57:39.104Z,4.60
2022-07-28T05:00:15.833Z,4.63
2022-07-28T05:02:50.643Z,4.70
2022-07-28T05:05:27.462Z,4.47
2022-07-28T05:07:59.910Z,4.67
2022-07-28T05:10:30.948Z,4.20
2022-07-28T05:13:09.124Z,4.37
2022-07-28T05:15:41.069Z,4.17
2022-07-28T05:18:11.895Z,3.90
2022-07-28T05:20:43.262Z,4.20
2022-07-28T05:23:14.369Z,4.10
2022-07-28T05:25:45.973Z,4.00
2022-07-28T05:28:47.338Z,3.70
2022-07-28T05:31:18.966Z,3.87
2022-07-28T05:33:50.161Z,3.70
2022-07-28T05:36:23.711Z,3.90
2022-07-28T05:38:56.129Z,3.87
2022-07-28T05:41:27.585Z,4.10
2022-07-28T05:44:02.322Z,3.83
2022-07-28T05:46:33.906Z,4.00
2022-07-28T05:49:14.513Z,3.70
2022-07-28T05:51:52.756Z,3.47
2022-07-28T05:54:25.317Z,3.77
2022-07-28T05:56:56.589Z,3.90
2022-07-28T05:59:31.271Z,3.90
2022-07-28T06:02:27.547Z,3.60
2022-07-28T06:07:56.946Z,3.37
2022-07-28T06:10:49.509Z,2.50
2022-07-28T06:13:21.533Z,3.03
2022-07-28T06:15:54.912Z,2.87
2022-07-28T06:18:26.897Z,2.77
2022-07-28T06:20:58.248Z,2.70
2022-07-28T06:23:29.047Z,2.90
2022-07-28T06:26:00.636Z,2.93
2022-07-28T06:28:36.096Z,2.47
2022-07-28T06:31:09.551Z,2.53
2022-07-28T06:33:41.568Z,2.67
2022-07-28T06:36:14.428Z,2.63
2022-07-28T06:41:22.581Z,2.33
2022-07-28T06:44:04.858Z,2.70
2022-07-28T06:46:51.771Z,3.00
2022-07-28T06:49:23.018Z,2.60
2022-07-28T06:51:54.627Z,2.73
2022-07-28T06:54:25.948Z,2.70
2022-07-28T06:56:57.883Z,2.53
2022-07-28T06:59:29.600Z,2.50
2022-07-28T07:02:04.433Z,3.00
2022-07-28T07:04:36.676Z,3.20
2022-07-28T07:07:17.304Z,3.10
2022-07-28T07:09:49.026Z,2.87
2022-07-28T07:12:21.871Z,3.07
2022-07-28T07:14:55.037Z,3.03
2022-07-28T07:17:29.107Z,2.70
2022-07-28T07:20:00.402Z,3.10
2022-07-28T07:22:31.410Z,3.07
2022-07-28T07:25:10.755Z,3.10
2022-07-28T07:27:41.984Z,2.87
2022-07-28T07:30:14.925Z,2.90
2022-07-28T07:32:48.145Z,2.87
2022-07-28T07:35:20.790Z,2.90
2022-07-28T07:37:52.037Z,3.20
2022-07-28T07:40:23.868Z,2.83
2022-07-28T07:42:54.916Z,2.67
2022-07-28T07:48:10.404Z,2.63
2022-07-28T07:50:43.850Z,3.00
2022-07-28T07:53:15.406Z,3.23
2022-07-28T07:55:47.352Z,2.47
2022-07-28T07:58:18.769Z,2.67
2022-07-28T08:00:50.038Z,3.07
2022-07-28T08:03:23.407Z,2.97
2022-07-28T08:05:58.709Z,2.73
2022-07-28T08:08:34.105Z,2.60
2022-07-28T08:11:13.832Z,2.67
2022-07-28T08:13:44.983Z,2.77
2022-07-28T08:16:16.250Z,2.80
2022-07-28T08:18:49.822Z,3.00
2022-07-28T08:21:20.999Z,2.90
2022-07-28T08:23:52.248Z,2.70
2022-07-28T08:26:23.769Z,2.80
2022-07-28T08:28:56.143Z,2.97
2022-07-28T08:31:27.870Z,2.90
2022-07-28T08:34:01.832Z,2.93
2022-07-28T08:36:33.239Z,2.70
2022-07-28T08:39:04.907Z,2.70
2022-07-28T08:42:07.949Z,2.57
2022-07-28T08:44:50.145Z,2.27
2022-07-28T08:47:23.404Z,2.20
2022-07-28T08:50:01.281Z,2.37
2022-07-28T08:52:34.077Z,2.43
2022-07-28T08:55:08.073Z,2.33
2022-07-28T08:57:41.238Z,2.40
2022-07-28T09:00:14.699Z,2.40
2022-07-28T09:02:52.148Z,2.33
2022-07-28T09:05:28.268Z,2.67
2022-07-28T09:08:00.546Z,2.40
2022-07-28T09:10:32.893Z,2.53
2022-07-28T09:13:04.410Z,2.67
2022-07-28T09:15:38.567Z,2.40
2022-07-28T09:18:10.091Z,2.57
2022-07-28T09:20:44.122Z,2.70
2022-07-28T09:23:42.565Z,2.57
2022-07-28T09:29:51.474Z,2.70
2022-07-28T09:32:24.361Z,2.60
2022-07-28T09:34:56.010Z,2.67
2022-07-28T09:37:30.666Z,2.40
2022-07-28T09:40:14.670Z,2.63
2022-07-28T09:42:51.267Z,2.33
2022-07-28T09:45:29.909Z,2.47
2022-07-28T09:48:15.670Z,2.57
2022-07-28T09:50:47.058Z,2.30
2022-07-28T09:53:29.102Z,2.90
2022-07-28T09:56:02.988Z,2.73
2022-07-28T09:58:35.250Z,2.43
2022-07-28T10:01:13.703Z,2.60
2022-07-28T10:03:46.827Z,2.67
2022-07-28T10:06:19.526Z,2.70
2022-07-28T10:08:54.822Z,2.67
2022-07-28T10:11:30.029Z,2.77
2022-07-28T10:14:03.732Z,2.23
2022-07-28T10:16:36.341Z,2.70
2022-07-28T10:19:08.933Z,2.63
2022-07-28T10:21:47.592Z,2.10
2022-07-28T10:28:03.640Z,2.53
2022-07-28T10:30:42.289Z,2.10
2022-07-28T10:33:19.090Z,2.37
2022-07-28T10:35:55.085Z,2.20
2022-07-28T10:38:30.712Z,2.50
2022-07-28T10:41:04.794Z,2.50
2022-07-28T10:44:10.820Z,2.53
2022-07-28T10:46:33.300Z,2.40
2022-07-28T10:49:09.064Z,2.93
2022-07-28T10:52:01.270Z,2.73
2022-07-28T10:54:37.906Z,2.63
2022-07-28T10:57:16.070Z,2.47
2022-07-28T11:00:12.183Z,2.67
2022-07-28T11:02:49.732Z,2.50
2022-07-28T11:05:36.147Z,2.40
2022-07-28T11:08:10.333Z,2.47
2022-07-28T11:10:51.108Z,2.60
2022-07-28T11:13:33.002Z,2.60
2022-07-28T11:16:25.758Z,2.50
2022-07-28T11:19:36.420Z,2.50
2022-07-28T11:22:29.378Z,2.60
2022-07-28T11:25:22.275Z,2.50
2022-07-28T11:28:09.195Z,2.57
2022-07-28T11:30:59.292Z,2.63
2022-07-28T11:33:58.339Z,2.53
2022-07-28T11:37:03.908Z,2.60
2022-07-28T11:39:42.697Z,2.40
2022-07-28T11:42:33.873Z,2.80
2022-07-28T11:45:38.733Z,2.57
2022-07-28T11:48:24.272Z,2.67
2022-07-28T11:51:15.435Z,2.70
2022-07-28T11:53:48.335Z,2.20
2022-07-28T11:56:25.880Z,2.70
2022-07-28T11:59:02.222Z,2.70
2022-07-28T12:01:37.046Z,2.60
2022-07-28T12:04:15.295Z,2.90
2022-07-28T12:06:51.558Z,2.70
2022-07-28T12:09:26.354Z,2.30
2022-07-28T12:12:00.519Z,2.60
2022-07-28T12:14:33.874Z,2.90
2022-07-28T12:17:10.432Z,2.97
2022-07-28T12:19:43.162Z,2.77
2022-07-28T12:22:18.013Z,2.83
2022-07-28T12:24:51.206Z,2.30
2022-07-28T12:27:31.735Z,2.63
2022-07-28T12:30:04.102Z,2.60
2022-07-28T12:32:36.244Z,2.93
2022-07-28T12:35:08.120Z,2.80
2022-07-28T12:37:43.011Z,2.50
2022-07-28T12:40:15.389Z,3.23
2022-07-28T12:42:46.057Z,2.67
2022-07-28T12:45:23.480Z,2.70
2022-07-28T12:47:54.978Z,2.23
2022-07-28T12:50:26.219Z,2.43
2022-07-28T12:53:09.847Z,2.77
2022-07-28T12:55:42.765Z,2.83
2022-07-28T12:58:27.712Z,2.90
2022-07-28T13:00:59.680Z,2.60
2022-07-28T13:03:31.799Z,2.07
2022-07-28T13:06:14.976Z,2.53
2022-07-28T13:08:50.389Z,2.80
2022-07-28T13:11:45.832Z,2.30
2022-07-28T13:14:18.615Z,2.47
2022-07-28T13:17:01.669Z,2.40
2022-07-28T13:19:33.708Z,2.47
2022-07-28T13:22:08.817Z,2.60
2022-07-28T13:24:44.867Z,2.70
2022-07-28T13:27:15.967Z,2.80
2022-07-28T13:29:49.270Z,2.60
2022-07-28T13:32:20.707Z,2.67
2022-07-28T13:34:52.014Z,2.80
2022-07-28T13:37:22.952Z,2.63
2022-07-28T13:39:55.960Z,3.27
2022-07-28T13:42:27.280Z,2.53
2022-07-28T13:44:59.103Z,2.70
2022-07-28T13:47:35.376Z,2.90
2022-07-28T13:50:11.423Z,2.90
2022-07-28T13:52:43.969Z,3.20
2022-07-28T13:55:19.901Z,3.60
2022-07-28T13:57:56.484Z,3.20
2022-07-28T14:00:27.686Z,3.10
2022-07-28T14:03:01.198Z,3.30
2022-07-28T14:05:33.782Z,3.23
2022-07-28T14:08:06.388Z,3.10
2022-07-28T14:10:39.970Z,3.27
2022-07-28T14:13:11.027Z,3.30
2022-07-28T14:15:42.605Z,3.63
2022-07-28T14:18:14.194Z,3.50
2022-07-28T14:20:45.476Z,2.93
2022-07-28T14:23:16.559Z,3.30
2022-07-28T14:25:52.184Z,3.30
2022-07-28T14:28:23.168Z,3.20
2022-07-28T14:30:54.449Z,3.33
2022-07-28T14:33:26.273Z,3.63
2022-07-28T14:35:58.172Z,3.20
2022-07-28T14:38:51.652Z,3.40
2022-07-28T14:41:23.027Z,3.97
2022-07-28T14:43:54.573Z,3.70
2022-07-28T14:46:29.731Z,3.73
2022-07-28T14:49:02.401Z,3.73
2022-07-28T14:51:34.097Z,3.40
2022-07-28T14:54:06.228Z,3.50
2022-07-28T14:56:40.241Z,3.70
2022-07-28T14:59:11.739Z,3.67
2022-07-28T15:01:43.377Z,3.73
2022-07-28T15:04:15.682Z,3.30
2022-07-28T15:06:48.295Z,3.47
2022-07-28T15:09:19.680Z,3.37
2022-07-28T15:11:55.737Z,3.50
2022-07-28T15:14:27.127Z,3.20
2022-07-28T15:16:58.282Z,3.43
2022-07-28T15:19:29.026Z,3.03
2022-07-28T15:22:02.221Z,3.13
2022-07-28T15:24:34.930Z,2.93
2022-07-28T15:27:09.016Z,3.07
2022-07-28T15:29:40.080Z,3.27
2022-07-28T15:32:14.765Z,2.70
2022-07-28T15:34:49.576Z,2.67
2022-07-28T15:43:25.268Z,2.70
2022-07-28T15:46:02.440Z,3.27
2022-07-28T15:48:38.286Z,3.30
2022-07-28T16:03:32.964Z,3.73
2022-07-28T16:06:04.857Z,3.50
2022-07-28T16:08:36.203Z,3.77
2022-07-28T16:11:41.911Z,3.90
2022-07-28T16:14:28.363Z,3.90
2022-07-28T16:17:04.219Z,3.87
2022-07-28T16:36:59.753Z,4.10
2022-07-28T16:39:33.479Z,3.93
2022-07-28T16:50:15.559Z,4.33
2022-07-28T16:53:01.605Z,4.07
2022-07-28T16:58:23.162Z,4.73
2022-07-28T17:03:53.807Z,4.10
2022-07-28T17:06:28.099Z,4.30
2022-07-28T17:09:03.882Z,4.53
2022-07-28T17:11:43.574Z,4.10
2022-07-28T17:14:19.651Z,4.50
2022-07-28T17:19:46.415Z,4.10
2022-07-28T17:22:26.128Z,4.33
2022-07-28T17:24:59.993Z,4.63
2022-07-28T17:27:37.666Z,4.20
2022-07-28T17:30:10.335Z,4.23
2022-07-28T17:32:41.984Z,4.37
2022-07-28T17:35:34.595Z,4.40
2022-07-28T17:38:08.865Z,4.43
2022-07-28T17:40:45.101Z,4.23
2022-07-28T17:43:19.340Z,4.43
2022-07-28T17:45:52.086Z,4.47
2022-07-28T17:48:24.671Z,4.70
2022-07-28T17:50:56.866Z,4.43
2022-07-28T17:53:29.079Z,4.10
2022-07-28T17:56:08.664Z,4.50
2022-07-28T17:58:44.358Z,4.80
2022-07-28T18:01:17.770Z,4.30
2022-07-28T18:06:38.406Z,4.43
2022-07-28T18:09:15.803Z,4.10
2022-07-28T18:11:59.423Z,4.20
2022-07-28T18:14:32.370Z,3.90
2022-07-28T18:17:18.237Z,4.30
2022-07-28T18:22:49.612Z,4.53
2022-07-28T18:25:20.741Z,4.37
2022-07-28T18:33:25.118Z,4.40
2022-07-28T18:35:58.671Z,4.07
2022-07-28T18:38:29.934Z,4.37
2022-07-28T18:41:01.037Z,4.50
2022-07-28T18:43:34.660Z,4.30
2022-07-28T18:46:09.889Z,4.17
2022-07-28T18:48:41.807Z,3.80
2022-07-28T18:51:14.460Z,4.20
2022-07-28T18:53:45.548Z,4.53
2022-07-28T18:56:30.224Z,4.10
2022-07-28T18:59:10.236Z,4.18
2022-07-28T19:04:15.078Z,4.00
2022-07-28T19:06:47.783Z,4.07
2022-07-28T19:09:19.372Z,4.33
2022-07-28T19:11:50.454Z,3.97
2022-07-28T19:14:26.139Z,3.95
2022-07-28T19:17:01.898Z,3.50
2022-07-28T19:19:34.003Z,4.23
2022-07-28T19:22:07.262Z,4.00
2022-07-28T19:24:39.352Z,3.47
2022-07-28T19:27:11.940Z,3.28
2022-07-28T19:29:46.471Z,4.07
2022-07-28T19:32:18.450Z,3.67
2022-07-28T19:37:39.861Z,3.92
2022-07-28T19:40:14.084Z,3.50
2022-07-28T19:42:45.376Z,3.50
2022-07-28T19:45:34.252Z,3.65
2022-07-28T19:48:13.395Z,4.00
2022-07-28T19:50:50.948Z,4.20
2022-07-28T19:53:32.263Z,4.15
2022-07-28T19:56:09.010Z,3.65
2022-07-28T19:58:40.598Z,3.60
2022-07-28T20:01:15.564Z,3.97
2022-07-28T20:04:01.576Z,3.90
2022-07-28T20:06:42.815Z,3.97
2022-07-28T20:09:17.733Z,3.80
2022-07-28T20:11:53.082Z,3.95
2022-07-28T20:17:37.263Z,3.55
2022-07-28T20:20:20.421Z,3.95
2022-07-28T20:27:57.460Z,3.95
2022-07-28T20:30:30.297Z,3.72
2022-07-28T20:33:11.540Z,4.35
2022-07-28T20:35:44.779Z,3.95
2022-07-28T20:38:16.544Z,3.90
2022-07-28T20:40:47.914Z,4.13
2022-07-28T20:43:35.982Z,3.95
2022-07-28T20:46:09.037Z,4.07
2022-07-28T20:51:29.313Z,4.30
2022-07-28T20:54:00.913Z,4.35
2022-07-28T20:56:33.066Z,4.22
2022-07-28T21:01:49.164Z,3.95
2022-07-28T21:04:24.672Z,3.88
2022-07-28T21:07:10.569Z,3.83
2022-07-28T21:09:42.591Z,3.88
2022-07-28T21:12:13.643Z,4.18
2022-07-28T21:14:46.104Z,3.70
2022-07-28T21:17:31.528Z,3.83
2022-07-28T21:20:13.760Z,3.60
2022-07-28T21:22:58.494Z,3.65
2022-07-28T21:28:51.875Z,4.20
2022-07-28T21:31:23.926Z,3.90
2022-07-28T21:33:55.263Z,3.28
2022-07-28T21:36:27.855Z,3.15
2022-07-28T21:41:58.491Z,3.67
2022-07-28T21:47:25.584Z,3.25
2022-07-28T21:49:56.859Z,3.13
2022-07-28T21:53:15.427Z,3.30
2022-07-28T22:01:58.289Z,3.55
2022-07-28T22:07:49.978Z,3.55
2022-07-28T22:10:35.137Z,3.60
2022-07-28T22:13:13.251Z,3.90
2022-07-28T22:19:05.480Z,3.80
2022-07-28T22:24:32.234Z,3.85
2022-07-28T22:27:17.856Z,3.25
2022-07-28T22:30:12.964Z,3.25
2022-07-28T22:35:42.393Z,3.20
2022-07-28T22:38:16.015Z,3.42
2022-07-28T22:40:47.410Z,3.58
2022-07-28T22:43:31.927Z,3.60
2022-07-28T22:46:05.519Z,3.33
2022-07-28T22:48:37.792Z,3.65
2022-07-28T22:51:14.085Z,3.15
2022-07-28T22:53:46.421Z,3.10
2022-07-28T22:56:22.034Z,3.00
2022-07-28T22:58:56.776Z,2.85
2022-07-28T23:01:31.048Z,3.03
2022-07-28T23:04:02.975Z,2.83
2022-07-28T23:06:36.191Z,3.15
2022-07-28T23:09:10.500Z,3.10
2022-07-28T23:11:55.620Z,3.28
2022-07-28T23:17:26.352Z,3.30
2022-07-28T23:20:11.276Z,3.20
2022-07-28T23:25:15.701Z,2.83
2022-07-28T23:30:51.755Z,3.47
2022-07-28T23:33:56.219Z,3.55
2022-07-28T23:36:26.898Z,3.30
2022-07-28T23:39:00.425Z,3.40
2022-07-28T23:41:31.416Z,3.25
2022-07-28T23:44:02.500Z,3.70
2022-07-28T23:46:34.424Z,3.70
2022-07-28T23:49:10.102Z,3.55
2022-07-28T23:51:48.128Z,3.35
2022-07-28T23:54:19.898Z,4.05
2022-07-28T23:56:57.485Z,3.63
2022-07-28T23:59:28.463Z,3.53
